ACT        NSW        VIC        QLD        SA        WA        TAS        NT        INFO        CALC            by VK5ZD

Past Date/Time: (dd/mm/yyyy hh:mm or blank for current data)    

  Atmospheric Gas Attenuation - ITU Rec 676-11   --------------- dB/100km ---------------
WA Stations Date Time Temp RH % AH g/m3 Dew Point Wind Direction Speed kph Gust kph Barometer mB Rainfall Since 9am 24GHz 47GHz 76GHz 122GHz 134GHz 241GHz
Albany Airport 03/05 09:00 14.9 90 11.47 13.3 9 17 1027.1 0 25.6 31.0 51.9 136.6 137.8 476.2
Badgingarra 03/05 09:00 13.7 66 7.82 7.5 17 22 1013.1 0 17.9 24.7 36.8 96.3 88.3 303.3
Barimunya 03/05 09:00 18.3 20 3.13 -5 28 37 1019.3 0 7.9 17.3 19.3 49.5 31.8 105.1
Barrow Island 03/05 09:00 26.9 51 13.05 15.9 43 52 1014.7 0 28.2 29.0 50.1 132.0 136.6 473.7
Bedout Island 03/05 09:00 25.9 45 10.89 13.1 46 54 1015.6 0 23.8 26.0 42.5 111.8 111.4 385.4
Bickley 03/05 09:00 9.4 91 8.23 8 15 26 1013.1 0 19.0 26.6 40.5 106.3 99.0 340.0
Boolgeeda 03/05 09:00 23.8 24 5.16 2 15 20 1016.5 0 12.0 18.7 24.0 62.2 49.5 168.2
Bridgetown 03/05 09:00 13.2 90 10.33 11.6 7 13 1027.8 0 23.3 29.6 48.1 126.3 124.4 429.1
Broome 03/05 09:00 27.1 39 10.09 12 19 28 1014.8 0 22.1 24.5 39.0 102.4 100.2 346.5
Bunbury 03/05 09:00 14.2 100 12.21 14.2 4 6 1027.9 0 27.3 32.6 55.8 146.9 150.1 519.1
Busselton Airport 03/05 09:00 13.4 100 11.63 13.4 7 11 1027.8 0 26.1 31.8 53.7 141.3 143.0 494.1
Cape Leeuwin 03/05 09:00 16.8 70 10.01 11.3 28 33 1027.7 0 22.4 27.8 44.6 117.0 114.3 394.5
Cape Naturaliste 03/05 09:00 15.3 92 12.01 14 19 26 1027.3 0 26.8 31.8 54.1 142.3 144.9 501.2
Carnarvon 03/05 09:00 20.1 27 4.69 0.5 33 41 1018 0 11.1 18.9 23.6 61.1 46.9 158.5
Christmas Creek 03/05 09:00 19.2 18 2.97 -5.7 26 35 1019.8 0 7.5 16.9 18.6 47.7 29.9 98.4
Christmas Island 03/05 09:00 27.1 79 20.45 23.1 20 35 1010.9 0 43.8 41.7 81.7 216.3 240.3 835.0
Cocos Island 03/05 09:00 28.5 81 22.64 24.9 17 26 1011.3 0 48.3 45.2 90.7 240.3 270.1 938.7
Collie East 03/05 09:00 12.3 92 9.99 11 6 15 1013.1 0 22.7 28.7 46.4 122.1 119.5 412.2
Coondewanna 03/05 09:00 18.2 21 3.26 -4.5 22 30 1019.1 0 8.2 17.5 19.7 50.6 33.2 109.8
Cunderdin Airport 03/05 09:00 10.5 89 8.63 8.8 15 20 1027.8 0 19.8 27.5 42.3 110.9 104.4 358.7
Curtin 03/05 09:00 28.2 41 11.27 13.7 19 32 1013.3 0 24.5 25.9 42.6 112.1 112.5 389.6
Dalwallinu 03/05 09:00 12.7 71 7.9 7.6 20 24 1026 0 18.1 25.6 38.1 99.7 91.5 314.1
Dwellingup 03/05 09:00 11.5 93 9.61 10.4 15 22 1027.5 0 21.9 28.9 45.9 120.6 116.7 402.2
Eliwana Airport 03/05 09:00 23.8 25 5.38 2.6 17 22 1013.1 0 12.4 18.9 24.5 63.8 51.6 175.6
Esperance 03/05 09:00 17.2 66 9.66 10.8 20 28 1024.2 0 21.7 27.0 42.8 112.3 108.8 375.2
Esperance Airport 03/05 09:00 15.5 76 10.05 11.3 17 20 1024.4 0 22.6 28.2 45.3 119.1 116.5 402.0
Eucla 03/05 09:00 16.1 70 9.59 10.6 22 32 1019.1 0 21.6 27.0 42.9 112.6 109.0 375.7
Eyre 03/05 06:00 10 100 9.4 10 30 1019.4 0 21.5 28.7 45.5 119.5 115.3 396.9
Fitzroy Crossing 03/05 09:00 28 44 11.97 14.6 1014.1 0 25.9 27.0 45.3 119.3 121.3 420.3
Forrest 03/05 09:00 14.6 70 8.76 9.2 32 41 1020.8 0 19.9 26.2 40.4 105.9 100.1 344.5
Fortescue Dave Forrest 03/05 09:00 18.2 23 3.57 -3.2 20 26 1019.3 0 8.8 17.9 20.6 53.1 36.3 121.0
Garden Island 03/05 09:00 13.2 86 9.88 10.9 17 24 1027.6 0 22.3 28.8 46.1 121.1 118.0 406.7
Geraldton Airport 03/05 09:00 16.4 50 6.98 6 32 43 1024.3 0 16.0 23.1 32.9 85.8 75.9 259.7
Gerangamete (Cfa) 03/05 10:50 13.1 95 10.84 12.4 9 11 1013.1 10.6 24.4 29.9 49.6 130.6 130.4 450.2
Giles* 03/05 10:30 14.3 38 4.67 0.2 30 39 1021 0 11.2 20.1 25.3 65.6 50.3 169.6
Gingin Airport 03/05 09:00 13.4 71 8.25 8.3 7 11 1027.1 0 18.8 26.0 39.2 102.7 95.4 327.7
Golden Grove 03/05 09:00 12.7 55 6.12 3.9 22 28 1024.9 0 14.4 22.7 31.2 81.2 68.8 234.4
Gooseberry Hill 03/05 09:00 12 80 8.53 8.7 22 30 1013.1 0 19.5 26.3 40.4 106.1 99.8 343.0
Gudai-Darri Mine 03/05 09:00 19.3 20 3.32 -4.2 32 39 1013.1 0 8.3 17.2 19.4 50.0 33.1 109.9
Halls Creek 03/05 10:30 29.2 35 10.16 12.2 11 13 1014.3 0 22.1 24.0 38.2 100.4 98.4 340.3
Hopetoun North 03/05 09:00 17.1 74 10.77 12.4 20 28 1025.1 0 24.0 28.9 47.4 124.7 123.9 428.2
Hyden 03/05 09:00 12.3 95 10.32 11.6 4 1013.1 0 23.4 29.3 47.8 125.9 124.2 428.7
Iron Bridge Mine 03/05 09:00 24 16 3.48 -3.3 22 32 1017.5 0 8.5 16.7 19.0 48.8 33.0 109.8
Jacup 03/05 09:00 12.6 98 10.84 12.3 9 13 1026.1 0 24.4 30.6 50.6 133.1 132.6 457.7
Jandakot 03/05 09:00 12.2 82 8.85 9.2 15 19 1027.4 0 20.2 27.3 42.3 110.9 105.1 361.4
Kalgoorlie-Boulder 03/05 09:00 11 79 7.91 7.5 9 13 1025.4 0 18.2 26.0 38.9 101.9 93.6 321.3
Kalumburu 03/05 10:30 30.4 60 18.6 22 9 13 1013.3 0 39.6 36.9 70.2 185.6 203.5 707.6
Karijini North 03/05 09:00 21.2 18 3.34 -4 22 30 1018.5 0 8.3 17.0 19.2 49.4 32.8 108.7
Karratha 03/05 09:00 26.4 23 5.73 3.6 37 44 1015.9 0 13.1 18.9 24.9 64.9 53.7 183.0
Katanning Rs 03/05 09:00 12 96 10.23 11.4 9 13 1027.4 0 23.2 29.8 48.3 127.0 124.9 430.6
Koolan Island / Koolan Central 03/05 09:00 29.6 55 16.32 19.6 9 17 1013.1 0 34.9 33.3 61.2 161.7 174.0 604.5
Kununurra Airport 03/05 10:30 31.5 50 16.44 20.1 7 9 1013.3 0 35.0 32.8 60.2 159.2 171.4 595.6
Lake Grace 03/05 09:00 13 96 10.89 12.4 15 22 1026.9 0 24.5 30.6 50.6 133.1 132.7 458.2
Lancelin (Defence) 03/05 09:00 16.3 68 9.43 10.4 13 19 1026.2 0 21.2 27.0 42.4 111.3 107.2 369.4
Laverton 03/05 09:00 12.9 78 8.79 9.2 20 24 1024.8 0 20.0 26.9 41.6 109.0 103.1 354.6
Learmonth 03/05 09:00 25.5 41 9.71 11.3 7 9 1015.5 0 21.3 24.4 38.4 100.9 97.8 337.9
Legendre Island 03/05 09:00 26.6 43 10.82 13.3 46 54 1015.6 0 23.6 25.7 41.9 110.1 109.6 379.1
Leinster 03/05 09:00 13.6 53 6.24 4.2 17 22 1023.5 0 14.6 22.6 31.2 81.4 69.4 236.6
Leonora Airport 03/05 09:00 13.5 58 6.78 5.4 17 24 1024.7 0 15.7 23.5 33.3 87.0 76.2 260.5
Lombadina 03/05 09:00 27.8 56 15.06 18.2 17 28 1013.8 0 32.4 31.9 57.4 151.7 161.1 559.2
Mandora 03/05 09:00 26.1 20 4.9 1.4 20 35 1016.2 0 11.4 17.9 22.5 58.4 45.6 154.6
Mandurah 03/05 09:00 12.6 82 9.07 9.6 11 19 1027.4 0 20.6 27.6 43.0 112.8 107.5 370.2
Manjimup 03/05 09:00 12.2 99 10.68 12 9 11 1027.7 0 24.1 30.5 50.2 132.0 131.1 452.5
Marble Bar 03/05 09:00 23.2 15 3.12 -4.8 24 33 1018.1 0 7.8 16.4 18.1 46.5 29.9 98.8
Mardie 03/05 09:00 27.4 28 7.37 7.3 26 33 1015.5 0 16.4 20.7 29.7 77.7 69.8 239.8
Meekatharra 03/05 09:00 15.5 42 5.55 2.7 24 33 1022.4 0 13.0 21.2 28.0 72.8 59.6 202.5
Millendon (Swan Valley) 03/05 09:00 11.9 87 9.22 9.8 0 2 1027.2 0 21.0 28.0 44.0 115.5 110.6 380.8
Morawa Airport 03/05 09:00 15 53 6.8 5.5 24 32 1025.3 0 15.7 23.2 32.8 85.6 75.1 256.7
Mount Keith 03/05 09:00 14.2 46 5.62 2.8 20 30 1023.9 0 13.2 21.6 28.8 74.8 61.5 208.9
Mount Magnet Airport 03/05 09:00 14.3 46 5.65 2.9 22 30 1023.8 0 13.3 21.6 28.8 75.0 61.7 209.9
Munglinup West 03/05 09:00 14.8 89 11.27 13 17 28 1025.1 0 25.2 30.6 51.0 134.2 134.9 466.0
Newdegate 03/05 09:00 13 88 9.98 11.1 13 19 1026.3 0 22.6 29.0 46.6 122.4 119.6 412.3
Newman Airport 03/05 09:00 17.8 25 3.79 -2.5 20 26 1020.3 0 9.3 18.2 21.4 55.3 38.8 129.7
Norseman Airport 03/05 09:00 12.5 94 10.34 11.6 13 19 1024.8 0 23.4 29.7 48.4 127.2 125.4 432.5
North Island 03/05 09:00 18.9 53 8.59 9.1 33 41 1024.1 0 19.3 24.8 37.8 98.9 92.9 319.8
Onslow Airport 03/05 09:00 27 35 9.01 10.2 32 37 1015.9 0 19.8 23.1 35.3 92.6 88.1 303.9
Paraburdoo 03/05 09:00 22.4 18 3.57 -3.1 22 32 1017.2 0 8.7 17.0 19.6 50.4 34.5 114.9
Paynes Find 03/05 09:00 12.2 65 7.01 5.9 6 1025.4 0 16.3 24.3 34.8 90.9 80.5 275.3
Pearce 03/05 09:00 12 85 9.06 9.6 7 11 1026.7 0 20.6 27.7 43.3 113.5 108.2 372.3
Perth 03/05 09:00 13.1 77 8.79 9.2 6 9 1027.4 0 20.0 27.0 41.6 109.0 103.0 354.4
Perth Airport 03/05 09:00 13.9 73 8.75 9.1 7 9 1027.4 0 19.9 26.6 41.0 107.4 101.4 349.0
Port Hedland 03/05 09:00 25.8 19 4.57 0.5 28 37 1016.9 0 10.7 17.6 21.7 56.1 42.6 143.9
Portable Btsa (Dfes) 03/05 08:50 17.4 36 5.33 2.1 19 22 1013.1 0 12.5 20.1 26.3 68.4 55.3 187.7
Portable Btsb (Dfes) 03/05 04:30 9.2 85 7.59 6.9 9 9 1013.1 0 17.6 25.6 37.9 99.5 90.5 310.2
Portable Btsd (Dfes) 03/05 08:50 9.3 93 8.36 8.3 11 13 1013.1 0 19.3 26.8 41.1 107.9 101.0 346.8
Portable Btsf (Dfes) 03/05 08:00 13.3 49 5.66 2.9 24 32 1013.1 0 13.4 21.5 28.8 75.1 62.0 210.9
Portable Btsh (Dfes) 03/05 08:50 14.8 79 10.01 11.3 17 20 1013.1 2.8 22.6 27.9 45.0 118.4 116.0 400.1
Portable Btsj (Dfes) 03/05 08:50 13.3 84 9.71 10.7 6 9 1013.1 0 22.0 27.9 44.6 117.3 114.1 393.3
Portable Btsk (Dfes) 03/05 08:50 21.9 23 4.44 -0.2 13 15 1013.1 0 10.5 18.1 22.2 57.4 43.2 145.5
Portable Btsl (Dfes) 03/05 08:50 14.1 84 10.19 11.4 22 30 1013.1 1 23.0 28.4 46.2 121.5 119.5 412.4
Portable Btsm (Dfes) 03/05 08:50 16.9 30 4.31 -0.7 9 15 1013.1 0 10.4 18.9 23.1 59.9 44.5 149.6
Portable Btsn (Dfes) 03/05 08:50 13.8 48 5.72 3 17 19 1013.1 0 13.5 21.5 28.9 75.2 62.4 212.1
Portable Btso (Dfes) 03/05 08:50 12.2 88 9.5 10.3 7 7 1013.1 0 21.6 27.9 44.4 116.6 112.8 388.7
Ravensthorpe 03/05 09:00 13.5 84 9.83 10.9 7 1025.4 1 22.2 28.5 45.6 119.8 116.6 402.0
Red Rocks Point 03/05 09:00 14.1 93 11.29 13 17 28 1019.7 0 25.3 30.6 51.3 135.0 135.8 469.3
Rocky Gully South 03/05 09:00 12.7 97 10.8 12.2 7 11 1013.1 0 24.4 30.0 49.7 130.8 130.5 450.6
Roebourne Airport 03/05 09:00 26 22 5.36 2.7 33 43 1016.9 0 12.3 18.5 24.0 62.2 50.3 170.9
Rottnest Island 03/05 09:00 15.2 74 9.6 10.6 20 26 1026.8 0 21.6 27.6 43.7 114.8 111.0 382.8
Salmon Gums Rs 03/05 09:00 13.7 90 10.66 12.1 13 22 1013.1 0 24.0 29.4 48.4 127.5 126.8 437.8
Shannon 03/05 09:00 13.1 100 11.41 13.1 9 13 1013.1 0 25.7 30.9 52.1 137.4 138.7 479.2
Shark Bay Airport 03/05 09:00 18.8 40 6.44 4.9 33 46 1019.6 0 14.8 21.6 29.9 77.9 67.1 229.2
Solomon Airport 03/05 09:00 20.9 22 4.01 -1.6 11 20 1017.2 0 9.7 17.8 21.2 54.9 39.5 132.4
Southern Cross Airport 03/05 09:00 9.4 94 8.5 8.5 13 15 1026.7 0 19.6 27.6 42.3 110.8 103.9 357.1
Swanbourne 03/05 09:00 14.1 89 10.8 12.3 9 15 1013.1 0 24.3 29.5 48.8 128.5 128.1 442.4
Telfer 03/05 09:00 20.4 19 3.36 -4 37 48 1018.9 0 8.3 17.2 19.5 50.0 33.3 110.5
Thevenard Island 03/05 09:00 25.9 56 13.56 16.5 32 43 1015.4 0 29.4 30.2 52.8 139.2 145.1 503.3
Troughton Island 03/05 10:30 30.3 70 21.58 24.4 11 15 1013.4 0 45.8 42.3 83.7 221.6 247.6 861.0
Truscott 03/05 10:30 29.9 63 19.01 22.1 7 11 1012.9 0 40.5 37.8 72.4 191.6 210.7 732.4
Walpole North 03/05 09:00 14.2 96 11.72 13.6 6 9 1027.2 0 26.2 31.7 53.5 140.9 142.8 493.4
Wandering 03/05 09:00 11.3 95 9.69 10.5 9 13 1013.1 0 22.1 28.5 45.7 120.2 116.8 402.6
West Angelas 03/05 09:00 18.2 23 3.57 -3.2 20 28 1018 0 8.8 17.8 20.6 53.0 36.3 120.8
West Musgrave Airport 03/05 09:00 16.1 36 4.93 1 26 35 1013.1 0 11.7 19.9 25.4 65.9 51.7 174.9
Wiluna Airport 03/05 09:00 14.3 46 5.65 2.9 17 24 1023.4 0 13.3 21.6 28.8 75.0 61.7 209.8
Witchcliffe West 03/05 09:00 13.6 100 11.77 13.6 9 13 1027.8 0 26.4 32.0 54.2 142.7 144.7 500.1
Wyndham Airport 03/05 10:30 31.3 54 17.57 20.9 4 9 1013 0 37.3 34.7 65.0 171.9 186.9 649.8
Yampi Sound (Defence) 03/05 09:00 29.5 56 16.53 19.8 4 6 1017.2 0 35.3 33.8 62.4 164.8 177.6 617.0

Last Refresh: 03-May-2026 10:35:57

Bureau of Meteorology